sensor_id;sensor_type;location;lat;lon;timestamp;P1;durP1;ratioP1;P2;durP2;ratioP2
9906;SDS011;4992;51.628;6.664;2023-07-30T00:00:56;9.05;;;2.75;;
9906;SDS011;4992;51.628;6.664;2023-07-30T00:03:22;3.33;;;2.38;;
9906;SDS011;4992;51.628;6.664;2023-07-30T00:05:52;5.38;;;2.17;;
9906;SDS011;4992;51.628;6.664;2023-07-30T00:08:18;5.85;;;2.95;;
9906;SDS011;4992;51.628;6.664;2023-07-30T00:10:44;7.88;;;2.63;;
9906;SDS011;4992;51.628;6.664;2023-07-30T00:13:09;6.20;;;2.30;;
9906;SDS011;4992;51.628;6.664;2023-07-30T00:15:35;6.43;;;2.55;;
9906;SDS011;4992;51.628;6.664;2023-07-30T00:18:01;3.05;;;2.60;;
9906;SDS011;4992;51.628;6.664;2023-07-30T00:20:27;7.22;;;2.63;;
9906;SDS011;4992;51.628;6.664;2023-07-30T00:22:53;8.25;;;2.38;;
9906;SDS011;4992;51.628;6.664;2023-07-30T00:25:19;5.22;;;2.65;;
9906;SDS011;4992;51.628;6.664;2023-07-30T00:27:45;4.40;;;2.33;;
9906;SDS011;4992;51.628;6.664;2023-07-30T00:30:11;6.90;;;2.40;;
9906;SDS011;4992;51.628;6.664;2023-07-30T00:32:37;7.05;;;2.47;;
9906;SDS011;4992;51.628;6.664;2023-07-30T00:35:08;6.55;;;2.50;;
9906;SDS011;4992;51.628;6.664;2023-07-30T00:37:34;7.75;;;2.25;;
9906;SDS011;4992;51.628;6.664;2023-07-30T00:40:01;3.58;;;2.55;;
9906;SDS011;4992;51.628;6.664;2023-07-30T00:42:27;4.70;;;2.28;;
9906;SDS011;4992;51.628;6.664;2023-07-30T00:44:53;7.20;;;2.25;;
9906;SDS011;4992;51.628;6.664;2023-07-30T00:47:20;4.68;;;2.17;;
9906;SDS011;4992;51.628;6.664;2023-07-30T00:49:46;16.00;;;3.20;;
9906;SDS011;4992;51.628;6.664;2023-07-30T00:52:12;10.07;;;2.80;;
9906;SDS011;4992;51.628;6.664;2023-07-30T00:54:38;8.35;;;2.90;;
9906;SDS011;4992;51.628;6.664;2023-07-30T00:57:04;7.07;;;3.13;;
9906;SDS011;4992;51.628;6.664;2023-07-30T00:59:32;4.35;;;2.67;;
9906;SDS011;4992;51.628;6.664;2023-07-30T01:01:58;7.88;;;2.67;;
9906;SDS011;4992;51.628;6.664;2023-07-30T01:04:25;4.38;;;2.55;;
9906;SDS011;4992;51.628;6.664;2023-07-30T01:06:51;4.82;;;2.60;;
9906;SDS011;4992;51.628;6.664;2023-07-30T01:09:17;4.68;;;2.28;;
9906;SDS011;4992;51.628;6.664;2023-07-30T01:11:43;6.97;;;2.63;;
9906;SDS011;4992;51.628;6.664;2023-07-30T01:14:09;5.03;;;2.72;;
9906;SDS011;4992;51.628;6.664;2023-07-30T01:16:35;4.80;;;2.70;;
9906;SDS011;4992;51.628;6.664;2023-07-30T01:19:01;4.45;;;2.53;;
9906;SDS011;4992;51.628;6.664;2023-07-30T01:21:33;6.22;;;2.83;;
9906;SDS011;4992;51.628;6.664;2023-07-30T01:23:59;4.90;;;2.10;;
9906;SDS011;4992;51.628;6.664;2023-07-30T01:26:27;12.45;;;2.63;;
9906;SDS011;4992;51.628;6.664;2023-07-30T01:28:55;4.25;;;2.03;;
9906;SDS011;4992;51.628;6.664;2023-07-30T01:31:23;7.75;;;2.08;;
9906;SDS011;4992;51.628;6.664;2023-07-30T01:33:49;7.28;;;2.60;;
9906;SDS011;4992;51.628;6.664;2023-07-30T01:36:16;5.72;;;2.40;;
9906;SDS011;4992;51.628;6.664;2023-07-30T01:38:42;7.45;;;2.60;;
9906;SDS011;4992;51.628;6.664;2023-07-30T01:41:09;6.47;;;2.10;;
9906;SDS011;4992;51.628;6.664;2023-07-30T01:43:35;3.97;;;2.00;;
9906;SDS011;4992;51.628;6.664;2023-07-30T01:46:01;9.80;;;2.88;;
9906;SDS011;4992;51.628;6.664;2023-07-30T01:48:27;5.57;;;2.42;;
9906;SDS011;4992;51.628;6.664;2023-07-30T01:50:53;5.57;;;2.35;;
9906;SDS011;4992;51.628;6.664;2023-07-30T01:53:19;5.95;;;2.78;;
9906;SDS011;4992;51.628;6.664;2023-07-30T01:55:45;5.15;;;2.60;;
9906;SDS011;4992;51.628;6.664;2023-07-30T01:58:11;7.72;;;2.88;;
9906;SDS011;4992;51.628;6.664;2023-07-30T02:00:38;4.15;;;2.25;;
9906;SDS011;4992;51.628;6.664;2023-07-30T02:03:04;6.05;;;2.45;;
9906;SDS011;4992;51.628;6.664;2023-07-30T02:05:30;6.00;;;2.78;;
9906;SDS011;4992;51.628;6.664;2023-07-30T02:07:56;6.07;;;2.40;;
9906;SDS011;4992;51.628;6.664;2023-07-30T02:10:23;7.40;;;2.60;;
9906;SDS011;4992;51.628;6.664;2023-07-30T02:12:49;7.80;;;2.40;;
9906;SDS011;4992;51.628;6.664;2023-07-30T02:15:15;6.15;;;2.42;;
9906;SDS011;4992;51.628;6.664;2023-07-30T02:17:41;5.45;;;2.70;;
9906;SDS011;4992;51.628;6.664;2023-07-30T02:20:07;7.30;;;2.85;;
9906;SDS011;4992;51.628;6.664;2023-07-30T02:22:34;5.70;;;2.67;;
9906;SDS011;4992;51.628;6.664;2023-07-30T02:25:00;5.65;;;2.78;;
9906;SDS011;4992;51.628;6.664;2023-07-30T02:27:25;6.72;;;2.72;;
9906;SDS011;4992;51.628;6.664;2023-07-30T02:29:51;7.57;;;2.33;;
9906;SDS011;4992;51.628;6.664;2023-07-30T02:32:17;5.55;;;2.42;;
9906;SDS011;4992;51.628;6.664;2023-07-30T02:34:43;6.88;;;2.55;;
9906;SDS011;4992;51.628;6.664;2023-07-30T02:37:09;5.57;;;3.00;;
9906;SDS011;4992;51.628;6.664;2023-07-30T02:39:35;7.50;;;2.72;;
9906;SDS011;4992;51.628;6.664;2023-07-30T02:42:01;10.18;;;3.00;;
9906;SDS011;4992;51.628;6.664;2023-07-30T02:44:27;3.70;;;2.58;;
9906;SDS011;4992;51.628;6.664;2023-07-30T02:46:53;7.05;;;3.15;;
9906;SDS011;4992;51.628;6.664;2023-07-30T02:49:19;7.90;;;2.50;;
9906;SDS011;4992;51.628;6.664;2023-07-30T02:51:45;6.75;;;3.33;;
9906;SDS011;4992;51.628;6.664;2023-07-30T02:54:13;8.27;;;2.65;;
9906;SDS011;4992;51.628;6.664;2023-07-30T02:56:41;4.60;;;2.67;;
9906;SDS011;4992;51.628;6.664;2023-07-30T02:59:07;7.35;;;2.47;;
9906;SDS011;4992;51.628;6.664;2023-07-30T03:01:32;6.05;;;2.50;;
9906;SDS011;4992;51.628;6.664;2023-07-30T03:03:58;4.68;;;2.72;;
9906;SDS011;4992;51.628;6.664;2023-07-30T03:06:24;5.40;;;2.88;;
9906;SDS011;4992;51.628;6.664;2023-07-30T03:08:50;5.93;;;2.42;;
9906;SDS011;4992;51.628;6.664;2023-07-30T03:11:16;6.45;;;2.50;;
9906;SDS011;4992;51.628;6.664;2023-07-30T03:13:42;8.60;;;2.45;;
9906;SDS011;4992;51.628;6.664;2023-07-30T03:16:08;6.03;;;2.60;;
9906;SDS011;4992;51.628;6.664;2023-07-30T03:18:34;7.78;;;3.53;;
9906;SDS011;4992;51.628;6.664;2023-07-30T03:21:00;8.95;;;3.60;;
9906;SDS011;4992;51.628;6.664;2023-07-30T03:23:27;7.20;;;3.05;;
9906;SDS011;4992;51.628;6.664;2023-07-30T03:25:53;14.23;;;3.92;;
9906;SDS011;4992;51.628;6.664;2023-07-30T03:28:19;5.32;;;2.47;;
9906;SDS011;4992;51.628;6.664;2023-07-30T03:30:45;8.60;;;3.22;;
9906;SDS011;4992;51.628;6.664;2023-07-30T03:33:10;11.88;;;3.40;;
9906;SDS011;4992;51.628;6.664;2023-07-30T03:35:36;9.20;;;3.03;;
9906;SDS011;4992;51.628;6.664;2023-07-30T03:38:02;8.93;;;2.65;;
9906;SDS011;4992;51.628;6.664;2023-07-30T03:40:28;7.70;;;3.13;;
9906;SDS011;4992;51.628;6.664;2023-07-30T03:42:54;9.75;;;3.05;;
9906;SDS011;4992;51.628;6.664;2023-07-30T03:45:20;8.50;;;3.00;;
9906;SDS011;4992;51.628;6.664;2023-07-30T03:47:46;9.73;;;3.20;;
9906;SDS011;4992;51.628;6.664;2023-07-30T03:50:12;5.50;;;2.67;;
9906;SDS011;4992;51.628;6.664;2023-07-30T03:52:38;11.80;;;3.28;;
9906;SDS011;4992;51.628;6.664;2023-07-30T03:55:04;10.20;;;3.30;;
9906;SDS011;4992;51.628;6.664;2023-07-30T03:57:30;7.25;;;2.78;;
9906;SDS011;4992;51.628;6.664;2023-07-30T03:59:56;8.40;;;3.03;;
9906;SDS011;4992;51.628;6.664;2023-07-30T04:02:22;9.48;;;2.88;;
9906;SDS011;4992;51.628;6.664;2023-07-30T04:04:48;8.43;;;2.95;;
9906;SDS011;4992;51.628;6.664;2023-07-30T04:07:15;8.27;;;3.10;;
9906;SDS011;4992;51.628;6.664;2023-07-30T04:09:41;8.98;;;2.60;;
9906;SDS011;4992;51.628;6.664;2023-07-30T04:12:07;8.23;;;2.80;;
9906;SDS011;4992;51.628;6.664;2023-07-30T04:14:33;8.45;;;3.03;;
9906;SDS011;4992;51.628;6.664;2023-07-30T04:16:59;9.32;;;2.97;;
9906;SDS011;4992;51.628;6.664;2023-07-30T04:19:25;10.30;;;3.67;;
9906;SDS011;4992;51.628;6.664;2023-07-30T04:21:51;8.60;;;3.42;;
9906;SDS011;4992;51.628;6.664;2023-07-30T04:24:17;9.02;;;3.70;;
9906;SDS011;4992;51.628;6.664;2023-07-30T04:26:42;13.70;;;5.07;;
9906;SDS011;4992;51.628;6.664;2023-07-30T04:29:08;7.90;;;3.60;;
9906;SDS011;4992;51.628;6.664;2023-07-30T04:31:35;9.40;;;4.18;;
9906;SDS011;4992;51.628;6.664;2023-07-30T04:34:01;6.38;;;4.00;;
9906;SDS011;4992;51.628;6.664;2023-07-30T04:36:27;12.60;;;5.13;;
9906;SDS011;4992;51.628;6.664;2023-07-30T04:38:53;10.23;;;4.57;;
9906;SDS011;4992;51.628;6.664;2023-07-30T04:41:20;10.90;;;5.25;;
9906;SDS011;4992;51.628;6.664;2023-07-30T04:43:46;13.98;;;5.57;;
9906;SDS011;4992;51.628;6.664;2023-07-30T04:46:11;12.00;;;4.55;;
9906;SDS011;4992;51.628;6.664;2023-07-30T04:48:37;14.10;;;5.32;;
9906;SDS011;4992;51.628;6.664;2023-07-30T04:51:03;12.45;;;4.80;;
9906;SDS011;4992;51.628;6.664;2023-07-30T04:53:29;12.38;;;5.13;;
9906;SDS011;4992;51.628;6.664;2023-07-30T04:55:55;11.27;;;5.28;;
9906;SDS011;4992;51.628;6.664;2023-07-30T04:58:22;9.88;;;5.25;;
9906;SDS011;4992;51.628;6.664;2023-07-30T05:00:48;12.57;;;5.65;;
9906;SDS011;4992;51.628;6.664;2023-07-30T05:03:14;12.07;;;5.53;;
9906;SDS011;4992;51.628;6.664;2023-07-30T05:05:40;10.45;;;5.72;;
9906;SDS011;4992;51.628;6.664;2023-07-30T05:08:06;11.20;;;5.70;;
9906;SDS011;4992;51.628;6.664;2023-07-30T05:10:32;10.40;;;5.03;;
9906;SDS011;4992;51.628;6.664;2023-07-30T05:12:58;12.85;;;5.32;;
9906;SDS011;4992;51.628;6.664;2023-07-30T05:15:24;12.98;;;5.38;;
9906;SDS011;4992;51.628;6.664;2023-07-30T05:17:50;13.27;;;5.30;;
9906;SDS011;4992;51.628;6.664;2023-07-30T05:20:16;11.60;;;4.60;;
9906;SDS011;4992;51.628;6.664;2023-07-30T05:22:42;8.88;;;4.25;;
9906;SDS011;4992;51.628;6.664;2023-07-30T05:25:08;9.88;;;4.35;;
9906;SDS011;4992;51.628;6.664;2023-07-30T05:27:35;12.85;;;5.25;;
9906;SDS011;4992;51.628;6.664;2023-07-30T05:30:01;12.45;;;4.55;;
9906;SDS011;4992;51.628;6.664;2023-07-30T05:32:27;13.80;;;4.45;;
9906;SDS011;4992;51.628;6.664;2023-07-30T05:34:53;18.33;;;5.20;;
9906;SDS011;4992;51.628;6.664;2023-07-30T05:37:19;13.57;;;5.88;;
9906;SDS011;4992;51.628;6.664;2023-07-30T05:39:45;12.52;;;5.07;;
9906;SDS011;4992;51.628;6.664;2023-07-30T05:42:11;9.35;;;4.93;;
9906;SDS011;4992;51.628;6.664;2023-07-30T05:44:37;10.95;;;5.60;;
9906;SDS011;4992;51.628;6.664;2023-07-30T05:47:03;12.73;;;6.13;;
9906;SDS011;4992;51.628;6.664;2023-07-30T05:49:29;13.00;;;6.30;;
9906;SDS011;4992;51.628;6.664;2023-07-30T05:51:55;18.75;;;6.57;;
9906;SDS011;4992;51.628;6.664;2023-07-30T05:54:21;14.25;;;6.10;;
9906;SDS011;4992;51.628;6.664;2023-07-30T05:56:47;16.40;;;6.47;;
9906;SDS011;4992;51.628;6.664;2023-07-30T05:59:13;14.65;;;6.60;;
9906;SDS011;4992;51.628;6.664;2023-07-30T06:01:39;15.10;;;6.30;;
9906;SDS011;4992;51.628;6.664;2023-07-30T06:04:05;22.73;;;6.72;;
9906;SDS011;4992;51.628;6.664;2023-07-30T06:06:31;14.43;;;7.45;;
9906;SDS011;4992;51.628;6.664;2023-07-30T06:08:57;16.40;;;7.05;;
9906;SDS011;4992;51.628;6.664;2023-07-30T06:11:23;20.90;;;7.70;;
9906;SDS011;4992;51.628;6.664;2023-07-30T06:13:49;16.20;;;7.00;;
9906;SDS011;4992;51.628;6.664;2023-07-30T06:16:16;15.07;;;6.50;;
9906;SDS011;4992;51.628;6.664;2023-07-30T06:18:42;15.55;;;7.20;;
9906;SDS011;4992;51.628;6.664;2023-07-30T06:21:08;14.20;;;6.95;;
9906;SDS011;4992;51.628;6.664;2023-07-30T06:23:34;12.73;;;6.55;;
9906;SDS011;4992;51.628;6.664;2023-07-30T06:26:00;21.65;;;6.75;;
9906;SDS011;4992;51.628;6.664;2023-07-30T06:28:26;14.23;;;7.32;;
9906;SDS011;4992;51.628;6.664;2023-07-30T06:30:52;17.35;;;6.80;;
9906;SDS011;4992;51.628;6.664;2023-07-30T06:33:18;17.00;;;7.78;;
9906;SDS011;4992;51.628;6.664;2023-07-30T06:35:44;12.70;;;6.05;;
9906;SDS011;4992;51.628;6.664;2023-07-30T06:38:10;12.38;;;5.80;;
9906;SDS011;4992;51.628;6.664;2023-07-30T06:40:35;12.85;;;6.40;;
9906;SDS011;4992;51.628;6.664;2023-07-30T06:43:01;12.30;;;5.25;;
9906;SDS011;4992;51.628;6.664;2023-07-30T06:45:27;13.02;;;5.85;;
9906;SDS011;4992;51.628;6.664;2023-07-30T06:47:53;10.90;;;5.78;;
9906;SDS011;4992;51.628;6.664;2023-07-30T06:50:19;15.45;;;4.68;;
9906;SDS011;4992;51.628;6.664;2023-07-30T06:52:45;15.48;;;4.28;;
9906;SDS011;4992;51.628;6.664;2023-07-30T06:55:11;9.80;;;4.25;;
9906;SDS011;4992;51.628;6.664;2023-07-30T06:57:37;12.18;;;4.20;;
9906;SDS011;4992;51.628;6.664;2023-07-30T07:00:03;14.48;;;5.05;;
9906;SDS011;4992;51.628;6.664;2023-07-30T07:02:29;19.55;;;8.40;;
9906;SDS011;4992;51.628;6.664;2023-07-30T07:04:55;11.93;;;4.20;;
9906;SDS011;4992;51.628;6.664;2023-07-30T07:07:21;14.15;;;4.00;;
9906;SDS011;4992;51.628;6.664;2023-07-30T07:09:47;10.63;;;3.88;;
9906;SDS011;4992;51.628;6.664;2023-07-30T07:12:13;11.55;;;3.55;;
9906;SDS011;4992;51.628;6.664;2023-07-30T07:14:39;12.18;;;3.80;;
9906;SDS011;4992;51.628;6.664;2023-07-30T07:17:07;11.30;;;3.67;;
9906;SDS011;4992;51.628;6.664;2023-07-30T07:19:33;13.30;;;3.65;;
9906;SDS011;4992;51.628;6.664;2023-07-30T07:22:02;8.70;;;3.70;;
9906;SDS011;4992;51.628;6.664;2023-07-30T07:24:28;11.02;;;3.80;;
9906;SDS011;4992;51.628;6.664;2023-07-30T07:26:54;12.40;;;4.18;;
9906;SDS011;4992;51.628;6.664;2023-07-30T07:29:20;12.07;;;4.45;;
9906;SDS011;4992;51.628;6.664;2023-07-30T07:31:46;11.82;;;4.25;;
9906;SDS011;4992;51.628;6.664;2023-07-30T07:34:12;9.90;;;4.05;;
9906;SDS011;4992;51.628;6.664;2023-07-30T07:36:37;11.13;;;3.90;;
9906;SDS011;4992;51.628;6.664;2023-07-30T07:39:04;11.90;;;5.00;;
9906;SDS011;4992;51.628;6.664;2023-07-30T07:41:30;9.77;;;4.10;;
9906;SDS011;4992;51.628;6.664;2023-07-30T07:43:55;10.52;;;4.35;;
9906;SDS011;4992;51.628;6.664;2023-07-30T07:46:21;10.23;;;4.03;;
9906;SDS011;4992;51.628;6.664;2023-07-30T07:48:47;13.27;;;4.07;;
9906;SDS011;4992;51.628;6.664;2023-07-30T07:51:13;7.95;;;3.28;;
9906;SDS011;4992;51.628;6.664;2023-07-30T07:53:39;10.65;;;3.58;;
9906;SDS011;4992;51.628;6.664;2023-07-30T07:56:05;10.70;;;3.60;;
9906;SDS011;4992;51.628;6.664;2023-07-30T07:58:32;10.93;;;4.30;;
9906;SDS011;4992;51.628;6.664;2023-07-30T08:00:59;11.45;;;3.42;;
9906;SDS011;4992;51.628;6.664;2023-07-30T08:03:25;13.52;;;3.78;;
9906;SDS011;4992;51.628;6.664;2023-07-30T08:05:51;16.75;;;3.67;;
9906;SDS011;4992;51.628;6.664;2023-07-30T08:08:17;11.95;;;3.80;;
9906;SDS011;4992;51.628;6.664;2023-07-30T08:10:43;8.55;;;3.22;;
9906;SDS011;4992;51.628;6.664;2023-07-30T08:13:12;11.95;;;3.58;;
9906;SDS011;4992;51.628;6.664;2023-07-30T08:15:38;8.65;;;3.47;;
9906;SDS011;4992;51.628;6.664;2023-07-30T08:18:04;10.73;;;3.40;;
9906;SDS011;4992;51.628;6.664;2023-07-30T08:20:30;12.50;;;3.08;;
9906;SDS011;4992;51.628;6.664;2023-07-30T08:22:56;7.82;;;3.10;;
9906;SDS011;4992;51.628;6.664;2023-07-30T08:25:22;9.98;;;2.92;;
9906;SDS011;4992;51.628;6.664;2023-07-30T08:27:47;7.47;;;2.97;;
9906;SDS011;4992;51.628;6.664;2023-07-30T08:30:13;10.63;;;2.97;;
9906;SDS011;4992;51.628;6.664;2023-07-30T08:32:39;11.95;;;3.55;;
9906;SDS011;4992;51.628;6.664;2023-07-30T08:35:08;9.07;;;3.17;;
9906;SDS011;4992;51.628;6.664;2023-07-30T08:37:34;8.63;;;2.50;;
9906;SDS011;4992;51.628;6.664;2023-07-30T08:40:00;8.32;;;3.15;;
9906;SDS011;4992;51.628;6.664;2023-07-30T08:42:26;8.75;;;2.60;;
9906;SDS011;4992;51.628;6.664;2023-07-30T08:44:52;9.65;;;2.53;;
9906;SDS011;4992;51.628;6.664;2023-07-30T08:47:18;13.75;;;3.10;;
9906;SDS011;4992;51.628;6.664;2023-07-30T08:49:43;7.18;;;2.20;;
9906;SDS011;4992;51.628;6.664;2023-07-30T08:52:10;10.73;;;3.33;;
9906;SDS011;4992;51.628;6.664;2023-07-30T08:54:36;7.82;;;2.38;;
9906;SDS011;4992;51.628;6.664;2023-07-30T08:57:03;10.57;;;2.00;;
9906;SDS011;4992;51.628;6.664;2023-07-30T08:59:42;9.30;;;2.13;;
9906;SDS011;4992;51.628;6.664;2023-07-30T09:02:08;9.05;;;2.40;;
9906;SDS011;4992;51.628;6.664;2023-07-30T09:04:38;12.40;;;2.88;;
9906;SDS011;4992;51.628;6.664;2023-07-30T09:07:08;7.82;;;2.92;;
9906;SDS011;4992;51.628;6.664;2023-07-30T09:09:35;7.32;;;2.65;;
9906;SDS011;4992;51.628;6.664;2023-07-30T09:12:01;9.85;;;2.35;;
9906;SDS011;4992;51.628;6.664;2023-07-30T09:14:26;6.25;;;2.15;;
9906;SDS011;4992;51.628;6.664;2023-07-30T09:16:58;6.57;;;1.85;;
9906;SDS011;4992;51.628;6.664;2023-07-30T09:19:24;11.05;;;2.08;;
9906;SDS011;4992;51.628;6.664;2023-07-30T09:21:50;10.27;;;2.05;;
9906;SDS011;4992;51.628;6.664;2023-07-30T09:24:20;5.78;;;2.17;;
9906;SDS011;4992;51.628;6.664;2023-07-30T09:26:46;7.28;;;2.22;;
9906;SDS011;4992;51.628;6.664;2023-07-30T09:29:12;8.63;;;2.03;;
9906;SDS011;4992;51.628;6.664;2023-07-30T09:31:52;5.25;;;1.65;;
9906;SDS011;4992;51.628;6.664;2023-07-30T09:34:22;7.38;;;1.90;;
9906;SDS011;4992;51.628;6.664;2023-07-30T09:36:52;6.82;;;1.77;;
9906;SDS011;4992;51.628;6.664;2023-07-30T09:39:22;7.18;;;2.05;;
9906;SDS011;4992;51.628;6.664;2023-07-30T09:41:49;7.82;;;2.20;;
9906;SDS011;4992;51.628;6.664;2023-07-30T09:44:16;10.60;;;2.17;;
9906;SDS011;4992;51.628;6.664;2023-07-30T09:46:43;10.40;;;2.42;;
9906;SDS011;4992;51.628;6.664;2023-07-30T09:49:09;7.15;;;2.00;;
9906;SDS011;4992;51.628;6.664;2023-07-30T09:51:38;8.15;;;2.00;;
9906;SDS011;4992;51.628;6.664;2023-07-30T09:54:08;9.27;;;1.73;;
9906;SDS011;4992;51.628;6.664;2023-07-30T09:56:35;8.13;;;2.20;;
9906;SDS011;4992;51.628;6.664;2023-07-30T09:59:01;8.68;;;2.03;;
9906;SDS011;4992;51.628;6.664;2023-07-30T10:01:28;6.22;;;1.80;;
9906;SDS011;4992;51.628;6.664;2023-07-30T10:03:55;8.52;;;1.80;;
9906;SDS011;4992;51.628;6.664;2023-07-30T10:06:21;7.28;;;1.50;;
9906;SDS011;4992;51.628;6.664;2023-07-30T10:08:49;6.78;;;1.55;;
9906;SDS011;4992;51.628;6.664;2023-07-30T10:11:16;7.03;;;1.67;;
9906;SDS011;4992;51.628;6.664;2023-07-30T10:13:42;5.53;;;1.85;;
9906;SDS011;4992;51.628;6.664;2023-07-30T10:16:11;7.47;;;1.67;;
9906;SDS011;4992;51.628;6.664;2023-07-30T10:18:37;5.28;;;1.60;;
9906;SDS011;4992;51.628;6.664;2023-07-30T10:21:04;4.50;;;1.45;;
9906;SDS011;4992;51.628;6.664;2023-07-30T10:23:33;10.70;;;2.00;;
9906;SDS011;4992;51.628;6.664;2023-07-30T10:25:59;8.65;;;2.47;;
9906;SDS011;4992;51.628;6.664;2023-07-30T10:28:34;7.82;;;1.48;;
9906;SDS011;4992;51.628;6.664;2023-07-30T10:31:05;5.18;;;1.50;;
9906;SDS011;4992;51.628;6.664;2023-07-30T10:33:49;6.45;;;1.52;;
9906;SDS011;4992;51.628;6.664;2023-07-30T10:36:34;5.95;;;1.52;;
9906;SDS011;4992;51.628;6.664;2023-07-30T10:41:40;5.95;;;1.55;;
9906;SDS011;4992;51.628;6.664;2023-07-30T10:44:06;7.25;;;1.90;;
9906;SDS011;4992;51.628;6.664;2023-07-30T10:46:32;7.65;;;1.70;;
9906;SDS011;4992;51.628;6.664;2023-07-30T10:48:58;7.57;;;1.58;;
9906;SDS011;4992;51.628;6.664;2023-07-30T10:51:24;6.80;;;1.63;;
9906;SDS011;4992;51.628;6.664;2023-07-30T10:53:50;4.30;;;1.10;;
9906;SDS011;4992;51.628;6.664;2023-07-30T10:56:18;5.22;;;1.88;;
9906;SDS011;4992;51.628;6.664;2023-07-30T10:58:48;6.03;;;1.90;;
9906;SDS011;4992;51.628;6.664;2023-07-30T11:01:14;8.00;;;1.60;;
9906;SDS011;4992;51.628;6.664;2023-07-30T11:03:41;4.88;;;1.55;;
9906;SDS011;4992;51.628;6.664;2023-07-30T11:06:07;16.17;;;8.80;;
9906;SDS011;4992;51.628;6.664;2023-07-30T11:10:59;5.78;;;1.63;;
9906;SDS011;4992;51.628;6.664;2023-07-30T11:13:25;5.78;;;1.42;;
9906;SDS011;4992;51.628;6.664;2023-07-30T11:15:51;5.90;;;1.27;;
9906;SDS011;4992;51.628;6.664;2023-07-30T11:18:17;7.00;;;2.08;;
9906;SDS011;4992;51.628;6.664;2023-07-30T11:20:43;7.35;;;1.52;;
9906;SDS011;4992;51.628;6.664;2023-07-30T11:23:22;5.35;;;1.40;;
9906;SDS011;4992;51.628;6.664;2023-07-30T11:25:48;6.22;;;1.42;;
9906;SDS011;4992;51.628;6.664;2023-07-30T11:28:26;8.60;;;1.77;;
9906;SDS011;4992;51.628;6.664;2023-07-30T11:30:53;3.70;;;1.70;;
9906;SDS011;4992;51.628;6.664;2023-07-30T11:33:19;5.22;;;1.63;;
9906;SDS011;4992;51.628;6.664;2023-07-30T11:35:45;6.43;;;1.58;;
9906;SDS011;4992;51.628;6.664;2023-07-30T11:38:11;6.35;;;1.50;;
9906;SDS011;4992;51.628;6.664;2023-07-30T11:40:38;4.55;;;0.88;;
9906;SDS011;4992;51.628;6.664;2023-07-30T11:43:05;6.40;;;1.70;;
9906;SDS011;4992;51.628;6.664;2023-07-30T11:45:31;3.20;;;1.02;;
9906;SDS011;4992;51.628;6.664;2023-07-30T11:48:06;5.57;;;1.52;;
9906;SDS011;4992;51.628;6.664;2023-07-30T11:50:49;2.13;;;0.68;;
9906;SDS011;4992;51.628;6.664;2023-07-30T11:53:16;2.88;;;0.68;;
9906;SDS011;4992;51.628;6.664;2023-07-30T11:55:43;2.75;;;0.63;;
9906;SDS011;4992;51.628;6.664;2023-07-30T11:58:10;1.80;;;0.77;;
9906;SDS011;4992;51.628;6.664;2023-07-30T12:00:36;3.38;;;1.05;;
9906;SDS011;4992;51.628;6.664;2023-07-30T12:03:03;3.42;;;1.02;;
9906;SDS011;4992;51.628;6.664;2023-07-30T12:05:33;3.42;;;1.02;;
9906;SDS011;4992;51.628;6.664;2023-07-30T12:07:59;3.35;;;1.02;;
9906;SDS011;4992;51.628;6.664;2023-07-30T12:10:28;4.97;;;1.60;;
9906;SDS011;4992;51.628;6.664;2023-07-30T12:12:54;2.72;;;1.30;;
9906;SDS011;4992;51.628;6.664;2023-07-30T12:15:20;4.75;;;1.10;;
9906;SDS011;4992;51.628;6.664;2023-07-30T12:17:47;2.10;;;1.08;;
9906;SDS011;4992;51.628;6.664;2023-07-30T12:20:13;3.00;;;1.23;;
9906;SDS011;4992;51.628;6.664;2023-07-30T12:22:39;2.53;;;1.00;;
9906;SDS011;4992;51.628;6.664;2023-07-30T12:25:07;3.70;;;1.10;;
9906;SDS011;4992;51.628;6.664;2023-07-30T12:27:34;6.32;;;1.17;;
9906;SDS011;4992;51.628;6.664;2023-07-30T12:30:00;3.80;;;1.20;;
9906;SDS011;4992;51.628;6.664;2023-07-30T12:32:26;4.97;;;1.15;;
9906;SDS011;4992;51.628;6.664;2023-07-30T12:34:54;5.20;;;1.45;;
9906;SDS011;4992;51.628;6.664;2023-07-30T12:37:20;5.88;;;1.30;;
9906;SDS011;4992;51.628;6.664;2023-07-30T12:39:46;4.80;;;1.20;;
9906;SDS011;4992;51.628;6.664;2023-07-30T12:42:12;3.60;;;1.40;;
9906;SDS011;4992;51.628;6.664;2023-07-30T12:44:38;5.60;;;1.35;;
9906;SDS011;4992;51.628;6.664;2023-07-30T12:47:04;8.20;;;1.60;;
9906;SDS011;4992;51.628;6.664;2023-07-30T12:49:30;6.95;;;1.67;;
9906;SDS011;4992;51.628;6.664;2023-07-30T12:51:56;5.50;;;1.75;;
9906;SDS011;4992;51.628;6.664;2023-07-30T12:54:22;8.38;;;2.30;;
9906;SDS011;4992;51.628;6.664;2023-07-30T12:56:48;5.13;;;2.53;;
9906;SDS011;4992;51.628;6.664;2023-07-30T12:59:14;5.30;;;1.90;;
9906;SDS011;4992;51.628;6.664;2023-07-30T13:01:40;4.97;;;1.50;;
9906;SDS011;4992;51.628;6.664;2023-07-30T13:04:06;7.55;;;1.63;;
9906;SDS011;4992;51.628;6.664;2023-07-30T13:06:32;5.50;;;1.70;;
9906;SDS011;4992;51.628;6.664;2023-07-30T13:08:58;6.82;;;1.77;;
9906;SDS011;4992;51.628;6.664;2023-07-30T13:11:24;6.88;;;1.73;;
9906;SDS011;4992;51.628;6.664;2023-07-30T13:13:50;5.07;;;1.63;;
9906;SDS011;4992;51.628;6.664;2023-07-30T13:16:16;5.10;;;1.50;;
9906;SDS011;4992;51.628;6.664;2023-07-30T13:18:41;4.13;;;1.23;;
9906;SDS011;4992;51.628;6.664;2023-07-30T13:21:07;3.70;;;1.55;;
9906;SDS011;4992;51.628;6.664;2023-07-30T13:23:33;4.75;;;1.30;;
9906;SDS011;4992;51.628;6.664;2023-07-30T13:26:00;8.80;;;1.05;;
9906;SDS011;4992;51.628;6.664;2023-07-30T13:28:26;2.10;;;0.82;;
9906;SDS011;4992;51.628;6.664;2023-07-30T13:30:52;2.65;;;1.02;;
9906;SDS011;4992;51.628;6.664;2023-07-30T13:33:18;2.85;;;1.17;;
9906;SDS011;4992;51.628;6.664;2023-07-30T13:35:44;2.22;;;0.98;;
9906;SDS011;4992;51.628;6.664;2023-07-30T13:38:10;3.28;;;1.30;;
9906;SDS011;4992;51.628;6.664;2023-07-30T13:40:36;3.15;;;0.82;;
9906;SDS011;4992;51.628;6.664;2023-07-30T13:43:02;3.45;;;1.48;;
9906;SDS011;4992;51.628;6.664;2023-07-30T13:45:28;3.10;;;0.95;;
9906;SDS011;4992;51.628;6.664;2023-07-30T13:47:53;5.10;;;1.80;;
9906;SDS011;4992;51.628;6.664;2023-07-30T13:50:19;3.60;;;0.80;;
9906;SDS011;4992;51.628;6.664;2023-07-30T13:52:45;3.05;;;0.93;;
9906;SDS011;4992;51.628;6.664;2023-07-30T13:55:12;3.33;;;0.80;;
9906;SDS011;4992;51.628;6.664;2023-07-30T13:57:38;3.15;;;0.65;;
9906;SDS011;4992;51.628;6.664;2023-07-30T14:00:04;2.72;;;0.70;;
9906;SDS011;4992;51.628;6.664;2023-07-30T14:02:31;4.38;;;0.80;;
9906;SDS011;4992;51.628;6.664;2023-07-30T14:04:57;4.13;;;0.70;;
9906;SDS011;4992;51.628;6.664;2023-07-30T14:07:23;3.05;;;0.82;;
9906;SDS011;4992;51.628;6.664;2023-07-30T14:09:49;3.25;;;1.15;;
9906;SDS011;4992;51.628;6.664;2023-07-30T14:12:15;5.93;;;0.98;;
9906;SDS011;4992;51.628;6.664;2023-07-30T14:14:41;4.38;;;1.38;;
9906;SDS011;4992;51.628;6.664;2023-07-30T14:17:07;6.15;;;1.27;;
9906;SDS011;4992;51.628;6.664;2023-07-30T14:19:33;2.63;;;1.00;;
9906;SDS011;4992;51.628;6.664;2023-07-30T14:21:59;3.00;;;1.15;;
9906;SDS011;4992;51.628;6.664;2023-07-30T14:24:25;2.85;;;0.47;;
9906;SDS011;4992;51.628;6.664;2023-07-30T14:26:51;3.40;;;1.30;;
9906;SDS011;4992;51.628;6.664;2023-07-30T14:29:17;1.98;;;0.70;;
9906;SDS011;4992;51.628;6.664;2023-07-30T14:31:43;4.43;;;1.00;;
9906;SDS011;4992;51.628;6.664;2023-07-30T14:34:09;3.92;;;1.25;;
9906;SDS011;4992;51.628;6.664;2023-07-30T14:36:35;2.47;;;0.80;;
9906;SDS011;4992;51.628;6.664;2023-07-30T14:39:01;2.75;;;0.88;;
9906;SDS011;4992;51.628;6.664;2023-07-30T14:41:27;1.80;;;1.27;;
9906;SDS011;4992;51.628;6.664;2023-07-30T14:43:53;5.25;;;1.02;;
9906;SDS011;4992;51.628;6.664;2023-07-30T14:46:19;4.03;;;1.00;;
9906;SDS011;4992;51.628;6.664;2023-07-30T14:48:45;4.70;;;1.20;;
9906;SDS011;4992;51.628;6.664;2023-07-30T14:51:11;2.40;;;0.90;;
9906;SDS011;4992;51.628;6.664;2023-07-30T14:53:37;2.47;;;1.10;;
9906;SDS011;4992;51.628;6.664;2023-07-30T14:56:03;3.45;;;0.73;;
9906;SDS011;4992;51.628;6.664;2023-07-30T14:58:29;5.78;;;1.30;;
9906;SDS011;4992;51.628;6.664;2023-07-30T15:00:55;2.55;;;0.73;;
9906;SDS011;4992;51.628;6.664;2023-07-30T15:03:20;5.10;;;0.98;;
9906;SDS011;4992;51.628;6.664;2023-07-30T15:05:47;3.78;;;1.10;;
9906;SDS011;4992;51.628;6.664;2023-07-30T15:08:13;4.63;;;1.38;;
9906;SDS011;4992;51.628;6.664;2023-07-30T15:10:39;2.72;;;1.23;;
9906;SDS011;4992;51.628;6.664;2023-07-30T15:13:05;2.97;;;0.75;;